Time;durP1;ratioP1;P1;durP2;ratioP2;P2;SDS_P1;SDS_P2;PMS_P1;PMS_P2;Temp;Humidity;BMP_temperature;BMP_pressure;BME280_temperature;BME280_humidity;BME280_pressure;Samples;Min_cycle;Max_cycle;Signal;HPM_P1;HPM_P2
2023/05/09 00:00:19;;;;;;;1.73;0.68;;;14.70;99.90;;;;;;5076153;28;20063;-61
2023/05/09 00:02:46;;;;;;;1.98;0.70;;;14.70;99.90;;;;;;5075911;28;20048;-61
2023/05/09 00:05:13;;;;;;;1.02;0.60;;;14.70;99.90;;;;;;5075567;28;20135;-62
2023/05/09 00:07:41;;;;;;;2.63;0.57;;;14.70;99.90;;;;;;5075769;28;20041;-61
2023/05/09 00:10:07;;;;;;;3.40;0.50;;;14.70;99.90;;;;;;5075752;28;20076;-62
2023/05/09 00:12:34;;;;;;;2.53;0.63;;;14.60;99.90;;;;;;5076191;28;20041;-62
2023/05/09 00:15:02;;;;;;;1.90;0.60;;;14.60;99.90;;;;;;5075697;28;20420;-61
2023/05/09 00:17:29;;;;;;;1.35;0.57;;;14.60;99.90;;;;;;5075821;28;20040;-62
2023/05/09 00:19:56;;;;;;;1.83;0.57;;;14.60;99.90;;;;;;5076186;28;20040;-62
2023/05/09 00:22:23;;;;;;;1.80;0.50;;;14.60;99.90;;;;;;5075925;28;20041;-62
2023/05/09 00:24:49;;;;;;;2.22;0.68;;;14.60;99.90;;;;;;5076059;28;20119;-62
2023/05/09 00:27:16;;;;;;;1.67;0.52;;;14.50;99.90;;;;;;5075829;28;20033;-61
2023/05/09 00:29:43;;;;;;;3.28;0.50;;;14.50;99.90;;;;;;5075995;28;20400;-61
2023/05/09 00:32:10;;;;;;;1.88;0.60;;;14.50;99.90;;;;;;5057553;28;20128;-62
2023/05/09 00:34:37;;;;;;;0.88;0.43;;;14.50;99.90;;;;;;5075794;28;20045;-62
2023/05/09 00:37:05;;;;;;;0.90;0.40;;;14.50;99.90;;;;;;5058057;28;20051;-62
2023/05/09 00:39:31;;;;;;;2.67;0.40;;;14.50;99.90;;;;;;5057630;28;20044;-61
2023/05/09 00:41:58;;;;;;;1.05;0.40;;;14.50;99.90;;;;;;5057489;28;20067;-61
2023/05/09 00:44:25;;;;;;;3.03;0.43;;;14.50;99.90;;;;;;5075627;28;20105;-61
2023/05/09 00:46:52;;;;;;;1.58;0.50;;;14.50;99.90;;;;;;5057219;28;20052;-62
2023/05/09 00:49:18;;;;;;;2.05;0.50;;;14.50;99.90;;;;;;5075621;28;20056;-61
2023/05/09 00:51:45;;;;;;;4.43;0.60;;;14.50;99.90;;;;;;5075449;28;20044;-62
2023/05/09 00:54:12;;;;;;;2.47;0.50;;;14.40;99.90;;;;;;5057171;28;20102;-61
2023/05/09 00:56:39;;;;;;;1.48;0.50;;;14.50;99.90;;;;;;5057547;28;20063;-60
2023/05/09 00:59:06;;;;;;;2.45;0.45;;;14.40;99.90;;;;;;5057131;28;20128;-62
2023/05/09 01:01:33;;;;;;;1.38;0.40;;;14.40;99.90;;;;;;5075179;28;20464;-62
2023/05/09 01:03:59;;;;;;;1.05;0.40;;;14.40;99.90;;;;;;5075406;28;20048;-62
2023/05/09 01:06:26;;;;;;;0.73;0.30;;;14.40;99.90;;;;;;5056960;28;20486;-61
2023/05/09 01:08:53;;;;;;;1.23;0.47;;;14.40;99.90;;;;;;5074989;28;20037;-62
2023/05/09 01:11:20;;;;;;;0.70;0.25;;;14.40;99.90;;;;;;5074808;28;20092;-61
2023/05/09 01:13:47;;;;;;;1.10;0.40;;;14.40;99.90;;;;;;5075210;28;20115;-61
2023/05/09 01:16:14;;;;;;;1.67;0.40;;;14.40;99.90;;;;;;5074915;28;20060;-62
2023/05/09 01:18:41;;;;;;;0.60;0.30;;;14.40;99.90;;;;;;5075037;28;20395;-62
2023/05/09 01:21:09;;;;;;;0.60;0.40;;;14.40;99.90;;;;;;5074501;28;20376;-62
2023/05/09 01:23:35;;;;;;;0.57;0.30;;;14.40;99.90;;;;;;5074500;28;20489;-60
2023/05/09 01:26:02;;;;;;;0.68;0.30;;;14.40;99.90;;;;;;5056307;28;20463;-62
2023/05/09 01:28:29;;;;;;;0.90;0.40;;;14.40;99.90;;;;;;5074476;28;20079;-62
2023/05/09 01:30:56;;;;;;;2.33;0.30;;;14.40;99.90;;;;;;5056716;28;20460;-61
2023/05/09 01:33:22;;;;;;;0.47;0.22;;;14.40;99.90;;;;;;5074420;28;20090;-61
2023/05/09 01:35:49;;;;;;;0.82;0.30;;;14.40;99.90;;;;;;5074645;28;20127;-62
2023/05/09 01:38:16;;;;;;;1.35;0.30;;;14.40;99.90;;;;;;5074471;28;20044;-61
2023/05/09 01:40:43;;;;;;;1.67;0.40;;;14.50;99.90;;;;;;5074273;28;20049;-61
2023/05/09 01:43:10;;;;;;;4.70;0.40;;;14.40;99.90;;;;;;5073521;28;20037;-62
2023/05/09 01:45:40;;;;;;;1.48;0.40;;;14.50;99.90;;;;;;5056575;28;20539;-61
2023/05/09 01:48:07;;;;;;;0.55;0.30;;;14.50;99.90;;;;;;5074319;28;20041;-61
2023/05/09 01:50:34;;;;;;;3.97;0.40;;;14.50;99.90;;;;;;5074497;28;20119;-60
2023/05/09 01:53:01;;;;;;;1.70;0.30;;;14.40;99.90;;;;;;5056336;28;20135;-60
2023/05/09 01:55:27;;;;;;;0.90;0.40;;;14.40;99.90;;;;;;5074368;28;20041;-61
2023/05/09 01:57:54;;;;;;;1.75;0.28;;;14.40;99.90;;;;;;5056323;28;20037;-61
2023/05/09 02:00:21;;;;;;;1.60;0.40;;;14.40;99.90;;;;;;5055912;28;20513;-61
2023/05/09 02:02:48;;;;;;;5.72;0.52;;;14.40;99.90;;;;;;5074145;28;20380;-62
2023/05/09 02:05:15;;;;;;;1.30;0.40;;;14.40;99.90;;;;;;5056124;28;20038;-61
2023/05/09 02:07:42;;;;;;;1.20;0.40;;;14.40;99.90;;;;;;5055986;28;20456;-61
2023/05/09 02:10:09;;;;;;;1.45;0.40;;;14.40;99.90;;;;;;5055820;28;20036;-61
2023/05/09 02:12:36;;;;;;;0.57;0.35;;;14.40;99.90;;;;;;5055755;28;20609;-61
2023/05/09 02:15:03;;;;;;;1.10;0.50;;;14.40;99.90;;;;;;5073340;28;20076;-62
2023/05/09 02:17:30;;;;;;;0.75;0.30;;;14.40;99.90;;;;;;5055608;28;20483;-62
2023/05/09 02:19:56;;;;;;;1.02;0.40;;;14.40;99.90;;;;;;5055528;28;20068;-61
2023/05/09 02:22:23;;;;;;;1.15;0.50;;;14.40;99.90;;;;;;5073572;28;20055;-61
2023/05/09 02:24:50;;;;;;;2.88;0.50;;;14.40;99.90;;;;;;5055623;28;20487;-63
2023/05/09 02:27:17;;;;;;;1.02;0.40;;;14.40;99.90;;;;;;5073476;28;20102;-62
2023/05/09 02:29:43;;;;;;;2.97;0.50;;;14.40;99.90;;;;;;5055059;28;20467;-62
2023/05/09 02:32:10;;;;;;;1.77;0.65;;;14.40;99.90;;;;;;5073559;28;20045;-62
2023/05/09 02:34:37;;;;;;;1.55;0.40;;;14.40;99.90;;;;;;5055608;28;20403;-62
2023/05/09 02:37:03;;;;;;;1.08;0.32;;;14.40;99.90;;;;;;5055436;28;20503;-63
2023/05/09 02:39:30;;;;;;;0.63;0.30;;;14.40;99.90;;;;;;5073426;28;20049;-64
2023/05/09 02:41:58;;;;;;;0.35;0.20;;;14.30;99.90;;;;;;5073106;28;20032;-62
2023/05/09 02:44:25;;;;;;;1.35;0.35;;;14.30;99.90;;;;;;5054908;28;20072;-62
2023/05/09 02:46:52;;;;;;;1.42;0.38;;;14.30;99.90;;;;;;5054811;28;20052;-62
2023/05/09 02:49:19;;;;;;;1.17;0.35;;;14.30;99.90;;;;;;5073469;28;20417;-62
2023/05/09 02:51:58;;;;;;;1.45;0.45;;;14.30;99.90;;;;;;5055303;28;20072;-62
2023/05/09 02:54:25;;;;;;;1.52;0.40;;;14.30;99.90;;;;;;5075002;28;20037;-62
2023/05/09 02:56:52;;;;;;;1.10;0.40;;;14.30;99.90;;;;;;5045213;28;20124;-62
2023/05/09 02:59:19;;;;;;;2.20;0.50;;;14.30;99.90;;;;;;5061887;28;20124;-63
2023/05/09 03:01:46;;;;;;;1.92;0.50;;;14.30;99.90;;;;;;5079930;28;20398;-61
2023/05/09 03:04:15;;;;;;;1.10;0.32;;;14.30;99.90;;;;;;5061787;28;20047;-62
2023/05/09 03:06:42;;;;;;;1.25;0.38;;;14.20;99.90;;;;;;5079873;28;20079;-62
2023/05/09 03:09:08;;;;;;;1.10;0.50;;;14.30;99.90;;;;;;5061761;28;20064;-62
2023/05/09 03:11:35;;;;;;;1.33;0.55;;;14.30;99.90;;;;;;5061592;28;20557;-61
2023/05/09 03:14:02;;;;;;;1.02;0.50;;;14.30;99.90;;;;;;5061746;28;20036;-62
2023/05/09 03:16:29;;;;;;;1.05;0.50;;;14.30;99.90;;;;;;5045548;28;20454;-62
2023/05/09 03:18:57;;;;;;;1.05;0.50;;;14.30;99.90;;;;;;5061480;28;20043;-62
2023/05/09 03:21:24;;;;;;;1.10;0.60;;;14.30;99.90;;;;;;5061592;28;20044;-62
2023/05/09 03:23:50;;;;;;;1.10;0.50;;;14.30;99.90;;;;;;5045215;28;20063;-62
2023/05/09 03:26:17;;;;;;;1.65;0.60;;;14.30;99.90;;;;;;5079563;28;20142;-61
2023/05/09 03:28:44;;;;;;;1.02;0.45;;;14.30;99.90;;;;;;5079560;28;20075;-62
2023/05/09 03:31:11;;;;;;;1.25;0.50;;;14.20;99.90;;;;;;5061085;28;20466;-62
2023/05/09 03:33:38;;;;;;;1.00;0.50;;;14.30;99.90;;;;;;5061411;28;20041;-62
2023/05/09 03:36:06;;;;;;;1.15;0.50;;;14.20;99.90;;;;;;5061420;28;20052;-61
2023/05/09 03:38:32;;;;;;;3.03;0.90;;;14.20;99.90;;;;;;5061584;28;20458;-62
2023/05/09 03:40:59;;;;;;;1.58;0.90;;;14.20;99.90;;;;;;5061331;28;20075;-62
2023/05/09 03:43:27;;;;;;;1.67;0.70;;;14.20;99.90;;;;;;5061409;28;20131;-62
2023/05/09 03:45:53;;;;;;;3.08;0.70;;;14.20;99.90;;;;;;5061263;28;20388;-62
2023/05/09 03:48:20;;;;;;;2.75;1.15;;;14.20;99.90;;;;;;5061299;28;20081;-63
2023/05/09 03:50:50;;;;;;;1.95;0.60;;;14.10;99.90;;;;;;5061074;28;20036;-62
2023/05/09 03:53:17;;;;;;;1.73;0.65;;;14.10;99.90;;;;;;5060886;28;20484;-62
2023/05/09 03:55:46;;;;;;;1.85;0.47;;;14.10;99.90;;;;;;5061435;28;20098;-62
2023/05/09 03:58:14;;;;;;;0.75;0.40;;;14.10;99.90;;;;;;5061144;28;20545;-62
2023/05/09 04:00:42;;;;;;;1.60;0.57;;;14.00;99.90;;;;;;5060814;28;20103;-62
2023/05/09 04:03:15;;;;;;;1.25;0.77;;;14.00;99.90;;;;;;5061099;28;20454;-61
2023/05/09 04:05:45;;;;;;;1.45;0.85;;;14.00;99.90;;;;;;5059528;28;20048;-62
2023/05/09 04:08:22;;;;;;;1.48;0.95;;;14.00;99.90;;;;;;5057672;28;20051;-62
2023/05/09 04:10:49;;;;;;;1.83;0.80;;;13.90;99.90;;;;;;5075552;28;20040;-62
2023/05/09 04:13:15;;;;;;;1.50;0.75;;;14.00;99.90;;;;;;5057931;28;20040;-62
2023/05/09 04:15:43;;;;;;;1.48;0.73;;;14.00;99.90;;;;;;5057600;28;20072;-61
2023/05/09 04:18:10;;;;;;;1.73;0.80;;;14.00;99.90;;;;;;5058263;28;20045;-61
2023/05/09 04:20:37;;;;;;;3.17;1.10;;;14.00;99.90;;;;;;5057487;28;20068;-62
2023/05/09 04:23:03;;;;;;;2.47;1.25;;;14.00;99.90;;;;;;5057798;28;20044;-63
2023/05/09 04:25:31;;;;;;;3.47;1.55;;;14.00;99.90;;;;;;5057913;28;20442;-62
2023/05/09 04:27:58;;;;;;;2.85;1.70;;;14.00;99.90;;;;;;5075772;28;20525;-63
2023/05/09 04:30:28;;;;;;;2.28;1.70;;;14.00;99.90;;;;;;5057711;28;20045;-62
2023/05/09 04:32:56;;;;;;;2.03;1.30;;;14.00;99.90;;;;;;5058083;28;20387;-62
2023/05/09 04:35:26;;;;;;;2.47;1.30;;;14.00;99.90;;;;;;5057718;28;20349;-62
2023/05/09 04:37:53;;;;;;;2.20;1.30;;;13.90;99.90;;;;;;5057600;28;20222;-61
2023/05/09 04:40:20;;;;;;;2.00;1.38;;;14.00;99.90;;;;;;5057317;28;20483;-62
2023/05/09 04:42:53;;;;;;;1.80;1.40;;;13.90;99.90;;;;;;5057703;28;20048;-62
2023/05/09 04:45:23;;;;;;;1.90;1.40;;;13.90;99.90;;;;;;5057071;28;20052;-61
2023/05/09 04:47:50;;;;;;;2.83;1.50;;;13.90;99.90;;;;;;5057438;28;20056;-61
2023/05/09 04:50:17;;;;;;;2.40;1.70;;;14.00;99.90;;;;;;5074947;28;20067;-61
2023/05/09 04:52:44;;;;;;;3.55;1.80;;;13.90;99.90;;;;;;5057595;28;20041;-59
2023/05/09 04:55:11;;;;;;;3.17;2.20;;;13.90;99.90;;;;;;5056898;28;20036;-61
2023/05/09 04:57:43;;;;;;;2.58;2.00;;;13.90;99.90;;;;;;5057024;28;20053;-62
2023/05/09 05:00:10;;;;;;;3.05;2.10;;;13.90;99.90;;;;;;5057035;28;20052;-63
2023/05/09 05:02:38;;;;;;;4.78;2.60;;;13.90;99.90;;;;;;5057217;28;20040;-62
2023/05/09 05:05:05;;;;;;;2.70;1.95;;;13.90;99.90;;;;;;5057364;28;20040;-62
2023/05/09 05:07:41;;;;;;;5.25;2.88;;;13.90;99.90;;;;;;5057157;28;20037;-62
2023/05/09 05:10:09;;;;;;;3.47;2.70;;;13.80;99.90;;;;;;5056888;28;20499;-63
2023/05/09 05:12:38;;;;;;;5.82;2.70;;;13.90;99.90;;;;;;5056832;28;20343;-63
2023/05/09 05:15:08;;;;;;;4.97;3.00;;;13.90;99.90;;;;;;5056769;28;20107;-62
2023/05/09 05:17:35;;;;;;;3.85;3.30;;;13.90;99.90;;;;;;5056063;28;20152;-63
2023/05/09 05:20:05;;;;;;;5.00;3.38;;;13.90;99.90;;;;;;5056231;28;20052;-62
2023/05/09 05:22:32;;;;;;;6.05;3.50;;;13.80;99.90;;;;;;5056519;28;20140;-62
2023/05/09 05:24:59;;;;;;;4.82;3.42;;;13.90;99.90;;;;;;5056647;28;20516;-63
2023/05/09 05:27:26;;;;;;;4.38;3.97;;;13.90;99.90;;;;;;5056303;28;20124;-62
2023/05/09 05:29:53;;;;;;;4.20;3.80;;;13.90;99.90;;;;;;5056430;28;20047;-62
2023/05/09 05:32:20;;;;;;;5.68;4.13;;;13.90;99.90;;;;;;5056646;28;20063;-62
2023/05/09 05:34:46;;;;;;;4.50;3.75;;;13.90;99.90;;;;;;5056255;28;20049;-60
2023/05/09 05:37:13;;;;;;;4.60;4.20;;;14.00;99.90;;;;;;5074170;28;20061;-64
2023/05/09 05:39:41;;;;;;;6.03;4.10;;;14.00;99.90;;;;;;5055927;28;20044;-61
2023/05/09 05:42:08;;;;;;;5.15;3.97;;;14.00;99.90;;;;;;5055989;28;20095;-60
2023/05/09 05:44:35;;;;;;;7.60;3.92;;;14.00;99.90;;;;;;5056233;28;20384;-62
2023/05/09 05:47:02;;;;;;;5.63;4.05;;;14.10;99.90;;;;;;5056117;28;20064;-61
2023/05/09 05:49:29;;;;;;;5.78;4.70;;;14.00;99.90;;;;;;5056134;28;20044;-61
2023/05/09 05:51:56;;;;;;;5.28;4.32;;;14.10;99.90;;;;;;5056024;28;20442;-62
2023/05/09 05:54:24;;;;;;;5.88;4.63;;;14.10;99.90;;;;;;5055909;28;20525;-61
2023/05/09 05:56:53;;;;;;;5.75;3.83;;;14.10;99.90;;;;;;5056171;28;20044;-61
2023/05/09 05:59:20;;;;;;;6.97;4.75;;;14.10;99.90;;;;;;5055927;28;20096;-60
2023/05/09 06:01:47;;;;;;;5.53;4.72;;;14.20;99.90;;;;;;5055816;28;20503;-61
2023/05/09 06:04:14;;;;;;;7.30;4.32;;;14.20;99.90;;;;;;5056019;28;20059;-61
2023/05/09 06:06:42;;;;;;;6.13;4.10;;;14.20;99.90;;;;;;5056247;28;20043;-61
2023/05/09 06:09:09;;;;;;;8.32;3.92;;;14.30;99.90;;;;;;5054023;28;20044;-59
2023/05/09 06:11:36;;;;;;;6.65;3.78;;;14.30;99.90;;;;;;5073203;28;20055;-61
2023/05/09 06:14:03;;;;;;;6.25;3.88;;;14.40;99.90;;;;;;5073680;28;20199;-61
2023/05/09 06:16:30;;;;;;;5.40;4.00;;;14.30;99.90;;;;;;5075645;28;20040;-61
2023/05/09 06:18:56;;;;;;;5.63;4.15;;;14.40;99.90;;;;;;5075650;28;20436;-62
2023/05/09 06:21:23;;;;;;;6.70;4.00;;;14.40;99.90;;;;;;5093572;28;20036;-62
2023/05/09 06:23:50;;;;;;;7.50;3.90;;;14.40;99.90;;;;;;5093774;28;20036;-61
2023/05/09 06:26:37;;;;;;;4.38;3.97;;;14.50;99.90;;;;;;5093851;28;20110;-61
2023/05/09 06:29:05;;;;;;;8.35;4.20;;;14.50;99.90;;;;;;5057113;28;20036;-60
2023/05/09 06:31:34;;;;;;;5.03;4.40;;;14.50;99.90;;;;;;5092349;28;20387;-61
2023/05/09 06:34:01;;;;;;;6.20;4.30;;;14.60;99.90;;;;;;5092341;28;20521;-61
2023/05/09 06:36:28;;;;;;;5.25;4.22;;;14.60;99.90;;;;;;5092235;28;20036;-61
2023/05/09 06:38:54;;;;;;;6.50;4.55;;;14.50;99.90;;;;;;5091970;28;20132;-61
2023/05/09 06:41:22;;;;;;;5.53;4.20;;;14.60;99.90;;;;;;5091779;28;20429;-61
2023/05/09 06:43:48;;;;;;;4.32;3.90;;;14.60;99.90;;;;;;5091553;28;20103;-60
2023/05/09 06:46:15;;;;;;;5.65;4.40;;;14.70;99.90;;;;;;5091287;28;20067;-60
2023/05/09 06:48:42;;;;;;;5.45;4.40;;;14.70;99.90;;;;;;5091174;28;20610;-61
2023/05/09 06:51:10;;;;;;;4.85;4.22;;;14.70;99.90;;;;;;5091876;28;20483;-60
2023/05/09 06:53:37;;;;;;;5.60;4.15;;;14.70;99.90;;;;;;5092696;28;20036;-60
2023/05/09 06:56:03;;;;;;;5.10;4.47;;;14.80;99.90;;;;;;5093430;28;20036;-61
2023/05/09 06:58:30;;;;;;;4.57;4.07;;;14.70;99.90;;;;;;5093267;28;20047;-61
2023/05/09 07:00:57;;;;;;;6.05;4.20;;;14.70;99.90;;;;;;5075300;28;20406;-61
2023/05/09 07:03:23;;;;;;;6.70;4.35;;;14.70;99.90;;;;;;5093162;28;20119;-61
2023/05/09 07:05:51;;;;;;;5.95;4.75;;;14.70;99.90;;;;;;5093145;28;20040;-62
2023/05/09 07:08:18;;;;;;;6.38;4.50;;;14.70;99.90;;;;;;5093015;28;20371;-61
2023/05/09 07:10:44;;;;;;;6.40;4.65;;;14.70;99.90;;;;;;5074957;28;20036;-60
2023/05/09 07:13:12;;;;;;;5.30;4.30;;;14.70;99.90;;;;;;5093305;28;20045;-61
2023/05/09 07:15:39;;;;;;;4.40;3.92;;;14.70;99.90;;;;;;5092689;28;20459;-61
2023/05/09 07:18:08;;;;;;;5.35;3.90;;;14.80;99.90;;;;;;5093574;28;20040;-61
2023/05/09 07:20:35;;;;;;;4.85;3.72;;;14.90;99.90;;;;;;5092949;28;20040;-61
2023/05/09 07:23:02;;;;;;;4.75;4.15;;;14.90;99.90;;;;;;5092935;28;20047;-61
2023/05/09 07:25:29;;;;;;;4.90;4.13;;;15.00;99.90;;;;;;5092841;28;20127;-60
2023/05/09 07:27:56;;;;;;;6.22;4.20;;;15.00;99.90;;;;;;5093386;28;20036;-62
2023/05/09 07:30:23;;;;;;;4.55;3.95;;;15.00;99.90;;;;;;5092947;28;20097;-61
2023/05/09 07:32:50;;;;;;;5.18;3.63;;;15.10;99.90;;;;;;5092951;28;20036;-60
2023/05/09 07:35:17;;;;;;;6.40;4.00;;;15.20;99.90;;;;;;5092790;28;20316;-60
2023/05/09 07:37:44;;;;;;;4.25;3.80;;;15.30;99.90;;;;;;5092797;28;20118;-62
2023/05/09 07:40:10;;;;;;;6.32;3.75;;;15.30;99.90;;;;;;5092579;28;20078;-61
2023/05/09 07:42:38;;;;;;;5.35;3.95;;;15.40;99.90;;;;;;5095197;28;20094;-61
2023/05/09 07:45:05;;;;;;;3.55;3.25;;;15.40;99.90;;;;;;5096866;28;20044;-61
2023/05/09 07:47:31;;;;;;;4.25;3.45;;;15.40;99.90;;;;;;5096863;28;20051;-61
2023/05/09 07:49:58;;;;;;;5.70;3.50;;;15.50;99.90;;;;;;5096550;28;20071;-60
2023/05/09 07:52:25;;;;;;;4.32;3.55;;;15.50;99.90;;;;;;5096820;28;20055;-60
2023/05/09 07:54:53;;;;;;;7.03;3.60;;;15.50;99.90;;;;;;5078095;28;20131;-61
2023/05/09 07:57:20;;;;;;;5.28;3.38;;;15.60;99.90;;;;;;5096651;28;20040;-61
2023/05/09 07:59:46;;;;;;;9.55;3.40;;;15.60;99.90;;;;;;5096236;28;20040;-62
2023/05/09 08:02:13;;;;;;;5.00;3.80;;;15.70;99.90;;;;;;5096014;28;20380;-61
2023/05/09 08:04:40;;;;;;;5.80;3.80;;;15.70;99.90;;;;;;5095973;28;20032;-61
2023/05/09 08:07:07;;;;;;;7.90;4.05;;;15.80;99.90;;;;;;5095838;28;20036;-60
2023/05/09 08:09:35;;;;;;;5.95;4.25;;;15.90;99.90;;;;;;5096194;28;20110;-60
2023/05/09 08:12:01;;;;;;;9.93;7.75;;;16.00;99.90;;;;;;5078530;28;20060;-61
2023/05/09 08:14:29;;;;;;;4.70;4.18;;;16.20;99.90;;;;;;5095855;28;20077;-60
2023/05/09 08:16:55;;;;;;;3.80;3.40;;;16.20;99.90;;;;;;5096428;28;20122;-62
2023/05/09 08:19:24;;;;;;;5.70;3.30;;;16.20;99.90;;;;;;5096051;28;20105;-61
2023/05/09 08:21:52;;;;;;;3.53;3.20;;;16.20;99.90;;;;;;5096132;28;20035;-62
2023/05/09 08:24:19;;;;;;;4.47;3.20;;;16.30;99.90;;;;;;5095998;28;20119;-60
2023/05/09 08:26:46;;;;;;;4.78;3.17;;;16.30;99.90;;;;;;5096417;28;20052;-61
2023/05/09 08:29:12;;;;;;;3.70;2.65;;;16.30;99.90;;;;;;5096047;28;20068;-61
2023/05/09 08:31:39;;;;;;;4.45;3.03;;;16.40;99.90;;;;;;5095678;28;20055;-61
2023/05/09 08:34:06;;;;;;;4.00;2.60;;;16.50;99.90;;;;;;5095892;28;20032;-61
2023/05/09 08:36:33;;;;;;;6.45;2.63;;;16.60;99.90;;;;;;5095666;28;20399;-60
2023/05/09 08:39:00;;;;;;;4.03;2.67;;;16.60;99.90;;;;;;5077720;28;20040;-61
2023/05/09 08:41:27;;;;;;;3.33;2.35;;;16.60;99.90;;;;;;5095551;28;20364;-61
2023/05/09 08:43:53;;;;;;;3.78;2.60;;;16.60;99.90;;;;;;5095668;28;20078;-60
2023/05/09 08:46:20;;;;;;;3.58;2.30;;;16.60;99.90;;;;;;5077730;28;20159;-62
2023/05/09 08:48:47;;;;;;;3.88;2.40;;;16.60;99.90;;;;;;5077455;28;20456;-62
2023/05/09 08:51:16;;;;;;;4.22;2.30;;;16.60;99.90;;;;;;5077888;28;20401;-60
2023/05/09 08:53:43;;;;;;;5.05;2.33;;;16.70;99.90;;;;;;5095001;28;20094;-61
2023/05/09 08:56:10;;;;;;;5.15;2.40;;;16.80;99.90;;;;;;5095313;28;20040;-61
2023/05/09 08:58:36;;;;;;;5.25;2.53;;;16.90;99.90;;;;;;5095493;28;20090;-61
2023/05/09 09:01:05;;;;;;;5.47;2.40;;;17.00;99.90;;;;;;5077355;28;20097;-62
2023/05/09 09:03:32;;;;;;;4.35;2.30;;;17.00;99.90;;;;;;5095166;28;20340;-61
2023/05/09 09:05:59;;;;;;;3.40;2.17;;;17.00;99.90;;;;;;5095127;28;20040;-61
2023/05/09 09:08:26;;;;;;;4.15;1.63;;;16.90;99.90;;;;;;5095274;28;20036;-61
2023/05/09 09:10:52;;;;;;;3.70;1.75;;;16.80;99.90;;;;;;5094808;28;20097;-62
2023/05/09 09:13:19;;;;;;;4.60;1.80;;;16.80;99.90;;;;;;5095216;28;20159;-62
2023/05/09 09:15:46;;;;;;;4.53;1.65;;;16.90;99.90;;;;;;5076834;28;20079;-61
2023/05/09 09:18:13;;;;;;;3.83;1.52;;;17.00;99.90;;;;;;5094994;28;20527;-61
2023/05/09 09:20:40;;;;;;;2.75;1.65;;;17.10;99.90;;;;;;5094498;28;20368;-62
2023/05/09 09:23:07;;;;;;;3.75;1.50;;;17.10;99.90;;;;;;5094691;28;20043;-62
2023/05/09 09:25:33;;;;;;;3.25;1.60;;;17.20;99.90;;;;;;5095008;28;20051;-61
2023/05/09 09:28:00;;;;;;;5.32;1.70;;;17.20;99.90;;;;;;5094387;28;20043;-61
2023/05/09 09:30:28;;;;;;;4.07;1.40;;;17.30;99.90;;;;;;5095007;28;20036;-61
2023/05/09 09:32:54;;;;;;;2.67;1.10;;;17.40;99.90;;;;;;5094748;28;20040;-60
2023/05/09 09:35:23;;;;;;;1.80;1.30;;;17.40;99.90;;;;;;5094522;28;20059;-62
2023/05/09 09:37:50;;;;;;;4.07;2.10;;;17.40;99.90;;;;;;5076599;28;20044;-62
2023/05/09 09:40:17;;;;;;;4.28;2.13;;;17.40;99.90;;;;;;5094556;28;20083;-61
2023/05/09 09:42:43;;;;;;;3.33;1.85;;;17.40;99.90;;;;;;5094393;28;20043;-61
2023/05/09 09:45:11;;;;;;;3.28;2.15;;;17.30;99.90;;;;;;5093974;28;20055;-62
2023/05/09 09:47:38;;;;;;;3.92;1.85;;;17.30;99.90;;;;;;5076426;28;20040;-60
2023/05/09 09:50:04;;;;;;;4.72;2.22;;;17.20;99.90;;;;;;5094236;28;20408;-60
2023/05/09 09:52:31;;;;;;;6.50;1.85;;;17.10;99.90;;;;;;5076459;28;20036;-61
2023/05/09 09:54:58;;;;;;;3.90;1.90;;;17.00;99.90;;;;;;5094012;28;20043;-61
2023/05/09 09:57:25;;;;;;;7.35;2.30;;;17.00;99.90;;;;;;5094468;28;20058;-61
2023/05/09 09:59:52;;;;;;;6.45;2.30;;;16.90;99.90;;;;;;5094398;28;20055;-61
2023/05/09 10:02:18;;;;;;;5.18;2.25;;;16.90;99.90;;;;;;5094190;28;20080;-61
2023/05/09 10:04:45;;;;;;;4.40;1.65;;;17.00;99.90;;;;;;5093768;28;20078;-61
2023/05/09 10:07:12;;;;;;;2.90;1.70;;;17.00;99.90;;;;;;5094399;28;20135;-61
2023/05/09 10:09:42;;;;;;;15.02;2.60;;;17.00;99.90;;;;;;5094122;28;20093;-61
2023/05/09 10:12:09;;;;;;;3.40;1.50;;;17.20;99.90;;;;;;5075579;28;20038;-61
2023/05/09 10:14:36;;;;;;;3.60;1.60;;;17.30;99.90;;;;;;5093853;28;20052;-61
2023/05/09 10:17:03;;;;;;;3.17;1.40;;;17.40;99.90;;;;;;5094089;28;20372;-60
2023/05/09 10:19:30;;;;;;;4.05;1.65;;;17.40;99.90;;;;;;5094349;28;20063;-61
2023/05/09 10:21:57;;;;;;;3.10;1.52;;;17.40;99.90;;;;;;5094055;28;20051;-62
2023/05/09 10:24:25;;;;;;;7.80;1.85;;;17.60;99.90;;;;;;5094108;28;20543;-62
2023/05/09 10:26:51;;;;;;;5.10;1.80;;;17.70;99.90;;;;;;5093642;28;20040;-61
2023/05/09 10:29:21;;;;;;;5.13;1.80;;;17.80;99.90;;;;;;5075966;28;20040;-62
2023/05/09 10:31:48;;;;;;;3.67;1.70;;;17.80;99.90;;;;;;5093786;28;20482;-62
2023/05/09 10:34:15;;;;;;;2.97;1.40;;;17.90;99.90;;;;;;5094260;28;20487;-61
2023/05/09 10:36:41;;;;;;;3.13;1.45;;;17.90;99.90;;;;;;5093647;28;20487;-62
2023/05/09 10:39:08;;;;;;;3.65;1.60;;;17.90;99.90;;;;;;5093564;28;20119;-60
2023/05/09 10:41:36;;;;;;;5.22;1.88;;;17.90;99.90;;;;;;5093817;28;20036;-61
2023/05/09 10:44:03;;;;;;;4.68;1.48;;;18.10;99.90;;;;;;5093490;28;20364;-62
2023/05/09 10:46:30;;;;;;;10.05;2.10;;;18.10;99.90;;;;;;5093639;28;20048;-62
2023/05/09 10:48:56;;;;;;;7.30;1.80;;;18.30;99.90;;;;;;5093562;28;20378;-61
2023/05/09 10:51:23;;;;;;;3.03;1.20;;;18.50;99.90;;;;;;5093648;28;20048;-62
2023/05/09 10:53:50;;;;;;;96.82;9.13;;;18.70;99.90;;;;;;5093385;28;20036;-61
2023/05/09 10:56:17;;;;;;;6.25;1.48;;;18.60;99.90;;;;;;5093400;28;20043;-61
2023/05/09 10:58:43;;;;;;;14.85;3.13;;;18.60;99.90;;;;;;5093799;28;20044;-61
2023/05/09 11:01:10;;;;;;;4.40;1.50;;;18.60;99.90;;;;;;5075632;28;20044;-62
2023/05/09 11:03:37;;;;;;;3.20;1.23;;;18.70;99.90;;;;;;5093504;28;20067;-61
2023/05/09 11:06:04;;;;;;;5.80;1.67;;;18.70;99.90;;;;;;5093425;28;20036;-62
2023/05/09 11:08:32;;;;;;;6.07;1.50;;;18.70;99.90;;;;;;5093565;28;20092;-62
2023/05/09 11:10:59;;;;;;;6.15;1.48;;;18.80;99.90;;;;;;5093650;28;20032;-62
2023/05/09 11:13:26;;;;;;;9.77;1.95;;;18.90;99.90;;;;;;5075696;28;20057;-61
2023/05/09 11:15:53;;;;;;;5.10;1.52;;;19.10;99.90;;;;;;5095432;28;20056;-61
2023/05/09 11:18:19;;;;;;;7.28;1.70;;;19.20;99.90;;;;;;5097949;28;20051;-61
2023/05/09 11:20:46;;;;;;;6.60;1.73;;;19.30;99.90;;;;;;5097733;28;20044;-61
2023/05/09 11:23:16;;;;;;;4.60;1.65;;;19.50;99.90;;;;;;5079778;28;20082;-61
2023/05/09 11:25:42;;;;;;;5.38;1.90;;;19.60;99.90;;;;;;5097749;28;20467;-62
2023/05/09 11:28:11;;;;;;;5.13;1.60;;;19.60;99.90;;;;;;5097391;28;20127;-60
2023/05/09 11:30:38;;;;;;;7.30;2.35;;;19.60;99.90;;;;;;5097340;28;20043;-61
2023/05/09 11:33:05;;;;;;;5.82;1.75;;;19.60;99.90;;;;;;5079588;28;20040;-61
2023/05/09 11:35:33;;;;;;;4.13;1.73;;;19.60;99.90;;;;;;5097152;28;20047;-61
2023/05/09 11:37:59;;;;;;;5.35;1.92;;;19.50;99.90;;;;;;5097269;28;20059;-61
2023/05/09 11:40:26;;;;;;;4.05;1.58;;;19.40;99.90;;;;;;5097418;28;20119;-60
2023/05/09 11:42:54;;;;;;;3.65;1.42;;;19.30;99.90;;;;;;5079297;28;20109;-62
2023/05/09 11:45:24;;;;;;;6.75;1.70;;;19.20;99.90;;;;;;5097447;28;20052;-60
2023/05/09 11:47:51;;;;;;;4.65;1.73;;;19.10;99.90;;;;;;5078665;28;20487;-61
2023/05/09 11:50:18;;;;;;;3.17;1.50;;;19.00;99.90;;;;;;5096707;28;20044;-62
2023/05/09 11:52:46;;;;;;;4.50;1.70;;;18.90;99.90;;;;;;5096957;28;20044;-60
2023/05/09 11:55:12;;;;;;;3.33;1.38;;;18.80;99.90;;;;;;5096796;28;20551;-60
2023/05/09 11:57:40;;;;;;;7.82;1.92;;;18.70;99.90;;;;;;5096841;28;20068;-60
2023/05/09 12:00:08;;;;;;;5.72;1.77;;;18.70;99.90;;;;;;5096995;28;20040;-62
2023/05/09 12:02:34;;;;;;;4.38;1.67;;;18.80;99.90;;;;;;5096727;28;20044;-62
2023/05/09 12:05:01;;;;;;;7.05;2.67;;;18.80;99.90;;;;;;5096680;28;20044;-61
2023/05/09 12:07:28;;;;;;;50.30;5.82;;;18.90;99.90;;;;;;5096539;28;20062;-62
2023/05/09 12:09:55;;;;;;;7.45;2.30;;;18.90;99.90;;;;;;5096165;28;20097;-61
2023/05/09 12:12:22;;;;;;;4.93;1.90;;;19.00;99.90;;;;;;5096396;28;20526;-61
2023/05/09 12:14:48;;;;;;;5.43;1.83;;;19.10;99.90;;;;;;5096513;28;20044;-60
2023/05/09 12:17:15;;;;;;;6.88;2.28;;;19.20;99.90;;;;;;5096764;28;20032;-61
2023/05/09 12:19:42;;;;;;;7.90;2.10;;;19.20;99.90;;;;;;5096577;28;20036;-61
2023/05/09 12:22:08;;;;;;;5.60;1.73;;;19.20;99.90;;;;;;5096659;28;20048;-61
2023/05/09 12:24:36;;;;;;;7.90;2.42;;;19.20;99.90;;;;;;5096439;28;20131;-60
2023/05/09 12:27:03;;;;;;;5.20;1.90;;;19.20;99.90;;;;;;5077690;28;20424;-61
2023/05/09 12:29:30;;;;;;;5.13;1.90;;;19.40;99.90;;;;;;5096286;28;20471;-62
2023/05/09 12:31:57;;;;;;;20.73;3.45;;;19.40;99.90;;;;;;5096252;28;20039;-61
2023/05/09 12:34:23;;;;;;;6.65;2.08;;;19.40;99.90;;;;;;5077974;28;20097;-61
2023/05/09 12:36:50;;;;;;;61.22;6.30;;;19.50;99.90;;;;;;5096371;28;20483;-61
2023/05/09 12:39:20;;;;;;;8.68;2.40;;;19.60;99.90;;;;;;5096109;28;20052;-61
2023/05/09 12:41:47;;;;;;;29.30;4.13;;;19.70;99.90;;;;;;5095819;28;20457;-60
2023/05/09 12:44:28;;;;;;;6.97;2.15;;;19.90;99.90;;;;;;5096346;28;20068;-61